METAR AND TAF INFORMATION

METAR FOR FACT
ADDS - METARS form results

(0828 UTC 24 July 2021)
Data provider http://aviationweather.gov/metar/data/
 
METAR text: FACT 240800Z VRB02KT CAVOK 14/04 Q1029 NOSIG
Conditions at: FACT (CAPETOWN/DF MALA, ZA) observed 0800 UTC 24 July 2021
Temperature: 14.0°C (57°F)
Dewpoint: 4.0°C (39°F) [RH = 51%]
Pressure (altimeter): 30.38 inches Hg (1029.0 mb)
Winds: variable direction winds at 2 MPH (2 knots; 1.0 m/s)
Visibility: 6 or more miles (10+ km)
Ceiling: ceiling and visibility are OK
Clouds: unknown
Weather: no significant weather observed at this time

METAR text: FACT 240753Z VRB02KT CAVOK 14/04 Q1029 NOSIG
Conditions at: FACT (CAPETOWN/DF MALA, ZA) observed 0753 UTC 24 July 2021
Temperature: 14.0°C (57°F)
Dewpoint: 4.0°C (39°F) [RH = 51%]
Pressure (altimeter): 30.38 inches Hg (1029.0 mb)
Winds: variable direction winds at 2 MPH (2 knots; 1.0 m/s)
Visibility: 6 or more miles (10+ km)
Ceiling: ceiling and visibility are OK
Clouds: unknown
Weather: no significant weather observed at this time

METAR text: FACT 240739Z VRB01KT CAVOK 12/05 Q1029 NOSIG
Conditions at: FACT (CAPETOWN/DF MALA, ZA) observed 0739 UTC 24 July 2021
Temperature: 12.0°C (54°F)
Dewpoint: 5.0°C (41°F) [RH = 62%]
Pressure (altimeter): 30.38 inches Hg (1029.0 mb)
Winds: variable direction winds at 1 MPH (1 knots; 0.5 m/s)
Visibility: 6 or more miles (10+ km)
Ceiling: ceiling and visibility are OK
Clouds: unknown
Weather: no significant weather observed at this time

Forecast for: FACT (CAPETOWN/DF MALA, ZA)
Text: TAF FACT 240400Z 2406/2512 VRB03KT CAVOK TX23/2512Z TN03/2406Z
Forecast period: 0600 UTC 24 July 2021 to 1200 UTC 25 July 2021
Forecast type: FROM: standard forecast or significant change
Winds: variable direction winds at 3 MPH (3 knots; 1.5 m/s)
Visibility: 6 or more miles (10+ km)
Ceiling: unknown
Clouds: missing
Weather: no significant weather forecast for this period

 

AIRPORT MAP

 

RUNWAY INFORMATION

Runway 01 Runway length 10502 ft Runway width 200 ft
Runway elevation 144 ft Runway displaced threshold 0 ft Runway heading 346
Runway 19 Runway length 10502 ft Runway width 200 ft
Runway elevation 147 ft Runway displaced threshold 0 ft Runway heading 166
Runway 16 Runway length 5581 ft Runway width 151 ft
Runway elevation 143 ft Runway displaced threshold 0 ft Runway heading 136
Runway 34 Runway length 5581 ft Runway width 151 ft
Runway elevation 151 ft Runway displaced threshold 0 ft Runway heading 316

 

AIRPORT FREQUENCIES

Type APP Name APP Frequency 120.05 MHZ
Type ARSA Name Director Frequency 124.5 MHZ
Type ATIS Name ATIS Frequency 127 MHZ
Type GND Name GND Frequency 121.9 MHZ
Type GTE Name APRON Frequency 122.65 MHZ
Type TWR Name TWR Frequency 118.1 MHZ

 

AIRPORT NEAR NAVIGATION AIDS

Type NDB Name Cape Town Frequency 463 KHZ
Type VORTAC Name Cape Town Frequency 115700 KHZ